Time;durP1;ratioP1;P1;durP2;ratioP2;P2;SDS_P1;SDS_P2;PMS_P1;PMS_P2;Temp;Humidity;BMP_temperature;BMP_pressure;BME280_temperature;BME280_humidity;BME280_pressure;Samples;Min_cycle;Max_cycle;Signal;HPM_P1;HPM_P2
2021/04/21 00:01:17;;;;;;;5.63;3.53;;;;;;;;;;5036334;28;20490;-71
2021/04/21 00:03:45;;;;;;;7.20;3.00;;;;;;;;;;5034965;28;20495;-71
2021/04/21 00:06:14;;;;;;;6.20;2.60;;;;;;;;;;5036626;28;20510;-71
2021/04/21 00:08:43;;;;;;;6.40;2.80;;;;;;;;;;5036394;28;20513;-72
2021/04/21 00:11:11;;;;;;;8.23;3.17;;;;;;;;;;5037405;28;20537;-71
2021/04/21 00:13:39;;;;;;;4.53;2.60;;;;;;;;;;5036967;28;20486;-72
2021/04/21 00:16:06;;;;;;;5.20;2.67;;;;;;;;;;5036318;28;20466;-71
2021/04/21 00:18:35;;;;;;;3.90;1.97;;;;;;;;;;5037333;28;20482;-71
2021/04/21 00:21:04;;;;;;;4.20;2.77;;;;;;;;;;5036222;28;20553;-72
2021/04/21 00:23:33;;;;;;;7.70;2.67;;;;;;;;;;5036593;28;20481;-72
2021/04/21 00:26:01;;;;;;;5.83;2.83;;;;;;;;;;5037754;28;20490;-72
2021/04/21 00:28:31;;;;;;;4.53;2.93;;;;;;;;;;5036516;28;20482;-72
2021/04/21 00:31:02;;;;;;;8.80;3.20;;;;;;;;;;5036780;28;20921;-71
2021/04/21 00:33:30;;;;;;;5.17;2.87;;;;;;;;;;5036054;28;20558;-71
2021/04/21 00:35:57;;;;;;;6.10;2.70;;;;;;;;;;5036892;28;20743;-71
2021/04/21 00:38:34;;;;;;;7.23;2.97;;;;;;;;;;5036055;28;20491;-71
2021/04/21 00:41:07;;;;;;;9.23;2.87;;;;;;;;;;5036106;28;20863;-71
2021/04/21 00:43:41;;;;;;;4.00;2.20;;;;;;;;;;5036725;28;20497;-71
2021/04/21 00:46:13;;;;;;;4.33;2.70;;;;;;;;;;5036208;28;20547;-72
2021/04/21 00:48:46;;;;;;;5.80;2.90;;;;;;;;;;5036359;28;20910;-71
2021/04/21 00:51:15;;;;;;;6.30;2.50;;;;;;;;;;5036015;28;20459;-71
2021/04/21 00:53:45;;;;;;;4.03;2.57;;;;;;;;;;5028738;28;20501;-72
2021/04/21 00:56:21;;;;;;;3.77;2.20;;;;;;;;;;5023641;28;20455;-72
2021/04/21 00:58:50;;;;;;;6.10;3.37;;;;;;;;;;5036836;28;20478;-71
2021/04/21 01:01:18;;;;;;;7.37;3.17;;;;;;;;;;5037234;28;20501;-71
2021/04/21 01:03:47;;;;;;;4.63;2.30;;;;;;;;;;5040934;28;20858;-71
2021/04/21 01:06:17;;;;;;;5.10;2.97;;;;;;;;;;5040005;28;20469;-72
2021/04/21 01:08:47;;;;;;;4.57;2.90;;;;;;;;;;5039639;28;20588;-72
2021/04/21 01:11:17;;;;;;;4.93;3.03;;;;;;;;;;5040313;28;20557;-71
2021/04/21 01:13:47;;;;;;;7.33;2.67;;;;;;;;;;5039133;28;20784;-71
2021/04/21 01:16:14;;;;;;;9.50;3.20;;;;;;;;;;5039719;28;20458;-71
2021/04/21 01:18:43;;;;;;;6.50;2.90;;;;;;;;;;5039605;28;20508;-71
2021/04/21 01:21:13;;;;;;;5.17;2.70;;;;;;;;;;5039958;28;20798;-71
2021/04/21 01:23:55;;;;;;;7.80;2.83;;;;;;;;;;5040063;28;20847;-72
2021/04/21 01:26:24;;;;;;;7.97;2.70;;;;;;;;;;5039560;28;20545;-71
2021/04/21 01:28:54;;;;;;;4.57;2.50;;;;;;;;;;5039737;28;20821;-71
2021/04/21 01:31:22;;;;;;;5.13;2.20;;;;;;;;;;5039864;28;20469;-72
2021/04/21 01:33:50;;;;;;;5.90;2.80;;;;;;;;;;5039079;28;20450;-72
2021/04/21 01:36:20;;;;;;;7.20;2.70;;;;;;;;;;5039637;28;20471;-71
2021/04/21 01:38:48;;;;;;;2.43;2.23;;;;;;;;;;5039154;28;20932;-72
2021/04/21 01:41:18;;;;;;;6.00;3.73;;;;;;;;;;5039480;28;20851;-72
2021/04/21 01:43:46;;;;;;;7.40;3.33;;;;;;;;;;5040632;28;20562;-72
2021/04/21 01:46:16;;;;;;;4.57;2.13;;;;;;;;;;5019173;28;20526;-72
2021/04/21 01:48:43;;;;;;;5.57;2.40;;;;;;;;;;5019059;28;20574;-71
2021/04/21 01:51:15;;;;;;;6.07;3.00;;;;;;;;;;5019235;28;20521;-71
2021/04/21 01:53:44;;;;;;;9.67;3.07;;;;;;;;;;5019209;28;20542;-72
2021/04/21 01:56:13;;;;;;;4.90;2.80;;;;;;;;;;5020056;28;20607;-71
2021/04/21 01:59:04;;;;;;;4.07;2.20;;;;;;;;;;5028708;28;20897;-72
2021/04/21 02:01:40;;;;;;;12.90;3.27;;;;;;;;;;5038790;28;20451;-71
2021/04/21 02:04:11;;;;;;;5.10;3.00;;;;;;;;;;5039281;28;20470;-71
2021/04/21 02:06:50;;;;;;;5.83;2.47;;;;;;;;;;5039356;28;20462;-72
2021/04/21 02:09:30;;;;;;;5.50;3.00;;;;;;;;;;5038535;28;20513;-72
2021/04/21 02:12:03;;;;;;;4.00;3.07;;;;;;;;;;5038702;28;20566;-72
2021/04/21 02:14:34;;;;;;;3.87;2.70;;;;;;;;;;5039338;28;20557;-72
2021/04/21 02:17:08;;;;;;;3.50;2.40;;;;;;;;;;5038623;28;20481;-72
2021/04/21 02:19:45;;;;;;;4.37;2.57;;;;;;;;;;5039346;28;20450;-71
2021/04/21 02:22:33;;;;;;;6.27;2.57;;;;;;;;;;5038565;28;20520;-71
2021/04/21 02:25:04;;;;;;;8.70;3.40;;;;;;;;;;5030113;28;20582;-72
2021/04/21 02:27:35;;;;;;;6.13;2.80;;;;;;;;;;5038339;28;20502;-71
2021/04/21 02:30:05;;;;;;;4.47;2.70;;;;;;;;;;5038266;28;20524;-72
2021/04/21 02:32:39;;;;;;;5.97;3.17;;;;;;;;;;5039528;28;20513;-71
2021/04/21 02:35:10;;;;;;;4.80;3.27;;;;;;;;;;5039081;28;20520;-71
2021/04/21 02:37:41;;;;;;;12.43;3.50;;;;;;;;;;5037920;28;20835;-71
2021/04/21 02:40:15;;;;;;;6.93;3.00;;;;;;;;;;5038592;28;20462;-72
2021/04/21 02:42:48;;;;;;;11.83;3.80;;;;;;;;;;5038008;28;20544;-71
2021/04/21 02:45:20;;;;;;;4.23;2.87;;;;;;;;;;5038061;28;20752;-71
2021/04/21 02:47:51;;;;;;;5.67;3.40;;;;;;;;;;5038713;28;21049;-71
2021/04/21 02:50:23;;;;;;;4.87;2.53;;;;;;;;;;5038482;28;20463;-71
2021/04/21 02:52:54;;;;;;;4.20;2.90;;;;;;;;;;5038014;28;20521;-71
2021/04/21 02:55:27;;;;;;;6.53;2.77;;;;;;;;;;5038038;28;20494;-71
2021/04/21 02:58:00;;;;;;;6.97;2.73;;;;;;;;;;5038569;28;20494;-71
2021/04/21 03:00:29;;;;;;;4.60;3.13;;;;;;;;;;5037623;28;20546;-71
2021/04/21 03:03:04;;;;;;;4.07;2.33;;;;;;;;;;5037908;28;20458;-72
2021/04/21 03:05:36;;;;;;;5.50;2.63;;;;;;;;;;5037030;28;20458;-71
2021/04/21 03:08:07;;;;;;;5.07;2.50;;;;;;;;;;5038076;28;20581;-71
2021/04/21 03:10:39;;;;;;;7.20;2.50;;;;;;;;;;5037421;28;20501;-71
2021/04/21 03:13:09;;;;;;;3.83;2.77;;;;;;;;;;5037301;28;20781;-71
2021/04/21 03:15:41;;;;;;;3.40;1.80;;;;;;;;;;5037266;28;20463;-71
2021/04/21 03:18:10;;;;;;;6.53;3.00;;;;;;;;;;5037735;28;20520;-71
2021/04/21 03:20:39;;;;;;;5.13;2.70;;;;;;;;;;5037747;28;20467;-71
2021/04/21 03:23:09;;;;;;;5.20;2.80;;;;;;;;;;5038220;28;20592;-71
2021/04/21 03:25:37;;;;;;;4.37;2.20;;;;;;;;;;5035833;28;20838;-71
2021/04/21 03:28:07;;;;;;;9.03;2.70;;;;;;;;;;5037898;28;20820;-72
2021/04/21 03:30:36;;;;;;;4.87;3.40;;;;;;;;;;5036425;28;20501;-71
2021/04/21 03:33:06;;;;;;;3.90;2.60;;;;;;;;;;5036407;28;20466;-71
2021/04/21 03:35:35;;;;;;;5.30;2.53;;;;;;;;;;5037454;28;20455;-71
2021/04/21 03:38:04;;;;;;;4.30;2.60;;;;;;;;;;5036732;28;20478;-71
2021/04/21 03:40:31;;;;;;;4.70;3.10;;;;;;;;;;5037713;28;20522;-71
2021/04/21 03:42:59;;;;;;;11.20;2.73;;;;;;;;;;5036848;28;20494;-71
2021/04/21 03:45:26;;;;;;;7.40;3.57;;;;;;;;;;5036080;28;20822;-71
2021/04/21 03:47:55;;;;;;;4.20;2.40;;;;;;;;;;5037224;28;20530;-71
2021/04/21 03:50:23;;;;;;;5.90;3.23;;;;;;;;;;5036706;28;20463;-71
2021/04/21 03:52:54;;;;;;;5.23;2.67;;;;;;;;;;5037074;28;20538;-71
2021/04/21 03:55:22;;;;;;;3.60;2.40;;;;;;;;;;5036832;28;20549;-71
2021/04/21 03:57:51;;;;;;;6.30;3.40;;;;;;;;;;5036593;28;20483;-71
2021/04/21 04:03:24;;;;;;;6.33;2.77;;;;;;;;;;5036165;28;20493;-71
2021/04/21 04:05:55;;;;;;;5.00;3.30;;;;;;;;;;5036355;28;20455;-71
2021/04/21 04:08:25;;;;;;;5.30;3.57;;;;;;;;;;5036918;28;20872;-71
2021/04/21 04:10:53;;;;;;;6.93;2.50;;;;;;;;;;5036549;28;20558;-72
2021/04/21 04:13:21;;;;;;;6.37;3.07;;;;;;;;;;5036461;28;20530;-71
2021/04/21 04:15:49;;;;;;;5.73;3.30;;;;;;;;;;5036063;28;20474;-71
2021/04/21 04:18:16;;;;;;;7.10;3.33;;;;;;;;;;5035942;28;20546;-71
2021/04/21 04:20:45;;;;;;;7.00;3.37;;;;;;;;;;5035790;28;20490;-71
2021/04/21 04:23:14;;;;;;;9.70;3.17;;;;;;;;;;5036198;28;20494;-71
2021/04/21 04:25:44;;;;;;;6.77;3.77;;;;;;;;;;5035494;28;20871;-71
2021/04/21 04:28:12;;;;;;;6.47;3.50;;;;;;;;;;5036830;28;20551;-71
2021/04/21 04:30:39;;;;;;;5.30;2.73;;;;;;;;;;5035572;28;20557;-71
2021/04/21 04:33:07;;;;;;;6.70;3.47;;;;;;;;;;5035626;28;20462;-71
2021/04/21 04:35:35;;;;;;;24.70;12.13;;;;;;;;;;5036991;28;20454;-71
2021/04/21 04:38:03;;;;;;;6.10;3.30;;;;;;;;;;5032477;28;20498;-71
2021/04/21 04:40:32;;;;;;;5.73;3.40;;;;;;;;;;5020232;28;20860;-71
2021/04/21 04:43:00;;;;;;;3.37;2.50;;;;;;;;;;5020179;28;20459;-71
2021/04/21 04:45:28;;;;;;;5.83;3.27;;;;;;;;;;5020131;28;21130;-71
2021/04/21 04:47:58;;;;;;;4.80;3.00;;;;;;;;;;5020070;28;20487;-71
2021/04/21 04:50:26;;;;;;;6.97;3.00;;;;;;;;;;5020415;28;20463;-71
2021/04/21 04:52:54;;;;;;;7.07;3.97;;;;;;;;;;5019486;28;20502;-71
2021/04/21 04:55:22;;;;;;;7.00;3.80;;;;;;;;;;5020044;28;20487;-71
2021/04/21 04:57:51;;;;;;;10.83;5.10;;;;;;;;;;5018631;28;20772;-71
2021/04/21 05:00:20;;;;;;;5.47;3.47;;;;;;;;;;5022028;28;21186;-71
2021/04/21 05:02:52;;;;;;;8.37;4.00;;;;;;;;;;5039918;28;20850;-70
2021/04/21 05:05:20;;;;;;;8.17;3.67;;;;;;;;;;5038422;28;20465;-70
2021/04/21 05:07:51;;;;;;;8.10;3.20;;;;;;;;;;5039511;28;20665;-70
2021/04/21 05:10:26;;;;;;;9.77;4.53;;;;;;;;;;5038925;28;20481;-71
2021/04/21 05:12:54;;;;;;;4.47;2.60;;;;;;;;;;5037740;28;20992;-70
2021/04/21 05:15:40;;;;;;;7.80;5.50;;;;;;;;;;5037925;28;20478;-71
2021/04/21 05:18:18;;;;;;;8.07;4.07;;;;;;;;;;5037603;28;20446;-70
2021/04/21 05:21:03;;;;;;;5.67;3.60;;;;;;;;;;5038027;28;20459;-71
2021/04/21 05:24:00;;;;;;;4.53;3.77;;;;;;;;;;5037862;28;20512;-71
2021/04/21 05:26:45;;;;;;;5.60;3.90;;;;;;;;;;5038065;28;20454;-71
2021/04/21 05:29:31;;;;;;;6.70;3.73;;;;;;;;;;5029868;28;20494;-72
2021/04/21 05:32:18;;;;;;;5.70;3.10;;;;;;;;;;5018410;28;20463;-72
2021/04/21 05:35:03;;;;;;;7.17;3.60;;;;;;;;;;5017771;28;20463;-71
2021/04/21 05:37:55;;;;;;;7.17;3.57;;;;;;;;;;5017769;28;20448;-72
2021/04/21 05:40:45;;;;;;;11.43;4.50;;;;;;;;;;5017452;28;20775;-71
2021/04/21 05:43:31;;;;;;;6.40;4.07;;;;;;;;;;5016384;28;20472;-71
2021/04/21 05:46:18;;;;;;;8.57;3.40;;;;;;;;;;5016063;28;20455;-71
2021/04/21 05:49:04;;;;;;;5.93;3.40;;;;;;;;;;5024285;28;20493;-71
2021/04/21 05:51:46;;;;;;;7.83;3.93;;;;;;;;;;5037131;28;20443;-71
2021/04/21 05:54:30;;;;;;;7.30;5.13;;;;;;;;;;5020541;28;20454;-70
2021/04/21 05:57:24;;;;;;;9.43;5.27;;;;;;;;;;4995759;28;20451;-71
2021/04/21 06:00:05;;;;;;;9.47;4.83;;;;;;;;;;4955779;29;20729;-72
2021/04/21 06:02:33;;;;;;;7.87;4.30;;;;;;;;;;4970789;28;20455;-70
2021/04/21 06:05:08;;;;;;;7.27;4.23;;;;;;;;;;5038838;28;20535;-71
2021/04/21 06:07:36;;;;;;;6.97;5.20;;;;;;;;;;5037184;28;20882;-71
2021/04/21 06:10:20;;;;;;;7.23;4.73;;;;;;;;;;5037441;28;20458;-70
2021/04/21 06:12:47;;;;;;;8.63;5.30;;;;;;;;;;5037048;28;20545;-70
2021/04/21 06:15:16;;;;;;;11.43;5.43;;;;;;;;;;5037555;28;20459;-70
2021/04/21 06:17:45;;;;;;;6.73;4.73;;;;;;;;;;5038340;28;20451;-69
2021/04/21 06:20:15;;;;;;;7.10;4.47;;;;;;;;;;5037050;28;20536;-70
2021/04/21 06:22:43;;;;;;;8.80;5.90;;;;;;;;;;5035615;28;20459;-71
2021/04/21 06:25:11;;;;;;;7.47;5.40;;;;;;;;;;5036596;28;20450;-71
2021/04/21 06:27:38;;;;;;;6.80;5.43;;;;;;;;;;5036019;28;20518;-71
2021/04/21 06:30:09;;;;;;;13.17;5.30;;;;;;;;;;5037158;28;20586;-71
2021/04/21 06:32:38;;;;;;;8.80;5.07;;;;;;;;;;5032478;28;20500;-71
2021/04/21 06:35:07;;;;;;;7.87;5.10;;;;;;;;;;5030506;28;20549;-69
2021/04/21 06:37:36;;;;;;;11.80;5.73;;;;;;;;;;5031520;28;20948;-71
2021/04/21 06:40:05;;;;;;;10.80;5.30;;;;;;;;;;5036292;28;20903;-72
2021/04/21 06:42:32;;;;;;;13.63;5.30;;;;;;;;;;5037108;28;20875;-70
2021/04/21 06:44:59;;;;;;;7.40;5.80;;;;;;;;;;5036471;28;21156;-70
2021/04/21 06:47:27;;;;;;;10.77;5.20;;;;;;;;;;5036988;28;20573;-70
2021/04/21 06:50:03;;;;;;;13.27;5.37;;;;;;;;;;5035506;28;20454;-71
2021/04/21 06:52:35;;;;;;;9.33;5.43;;;;;;;;;;5035771;28;20784;-70
2021/04/21 06:55:02;;;;;;;7.20;5.70;;;;;;;;;;5036666;28;20889;-71
2021/04/21 06:57:30;;;;;;;9.57;5.83;;;;;;;;;;5034818;28;20530;-71
2021/04/21 07:00:07;;;;;;;8.27;5.60;;;;;;;;;;5036836;28;20469;-71
2021/04/21 07:02:38;;;;;;;9.33;5.53;;;;;;;;;;5036739;28;20458;-71
2021/04/21 07:05:26;;;;;;;9.83;5.93;;;;;;;;;;5035197;28;20470;-71
2021/04/21 07:08:00;;;;;;;10.40;5.20;;;;;;;;;;5037476;28;20486;-71
2021/04/21 07:10:28;;;;;;;13.33;5.27;;;;;;;;;;5037037;28;20465;-71
2021/04/21 07:12:56;;;;;;;8.10;4.80;;;;;;;;;;5036455;28;20538;-70
2021/04/21 07:15:24;;;;;;;10.83;5.43;;;;;;;;;;5035539;28;20875;-70
2021/04/21 07:17:52;;;;;;;7.53;5.27;;;;;;;;;;5037208;28;20544;-70
2021/04/21 07:20:20;;;;;;;12.00;6.90;;;;;;;;;;5035178;28;20835;-70
2021/04/21 07:22:48;;;;;;;12.10;6.20;;;;;;;;;;5035792;28;20451;-70
2021/04/21 07:25:16;;;;;;;9.13;5.93;;;;;;;;;;5034165;28;20458;-70
2021/04/21 07:27:46;;;;;;;9.50;6.77;;;;;;;;;;5036111;28;20487;-70
2021/04/21 07:30:25;;;;;;;18.47;7.60;;;;;;;;;;5034863;28;20455;-71
2021/04/21 07:32:53;;;;;;;11.27;7.13;;;;;;;;;;5034555;28;20478;-71
2021/04/21 07:35:24;;;;;;;10.07;6.10;;;;;;;;;;5035433;28;20497;-70
2021/04/21 07:37:56;;;;;;;13.33;7.13;;;;;;;;;;5035992;28;20466;-70
2021/04/21 07:41:00;;;;;;;11.13;6.60;;;;;;;;;;5033203;28;20466;-70
2021/04/21 07:43:28;;;;;;;14.13;6.77;;;;;;;;;;5034176;28;20851;-69
2021/04/21 07:45:58;;;;;;;8.70;6.30;;;;;;;;;;5034885;28;20827;-69
2021/04/21 07:48:42;;;;;;;9.37;6.07;;;;;;;;;;5036697;28;20494;-69
2021/04/21 07:51:28;;;;;;;10.03;6.20;;;;;;;;;;5035794;28;20494;-70
2021/04/21 07:54:01;;;;;;;9.77;6.13;;;;;;;;;;5033838;28;20510;-70
2021/04/21 07:56:35;;;;;;;9.27;5.20;;;;;;;;;;5034605;28;20537;-69
2021/04/21 07:59:19;;;;;;;10.40;6.10;;;;;;;;;;5034846;28;20614;-70
2021/04/21 08:01:47;;;;;;;8.13;6.00;;;;;;;;;;5032615;28;20451;-70
2021/04/21 08:04:18;;;;;;;11.17;6.63;;;;;;;;;;5021400;28;20483;-70
2021/04/21 08:06:47;;;;;;;11.70;6.10;;;;;;;;;;5013748;28;20482;-69
2021/04/21 08:09:15;;;;;;;14.83;7.10;;;;;;;;;;5013782;28;20498;-69
2021/04/21 08:11:42;;;;;;;11.80;5.30;;;;;;;;;;5014589;28;21012;-69
2021/04/21 08:14:09;;;;;;;8.83;6.03;;;;;;;;;;5024201;28;20709;-70
2021/04/21 08:16:40;;;;;;;16.47;6.73;;;;;;;;;;5033417;28;20476;-70
2021/04/21 08:19:15;;;;;;;8.00;4.17;;;;;;;;;;5034337;28;20447;-69
2021/04/21 08:21:44;;;;;;;12.33;5.87;;;;;;;;;;5034680;28;20543;-70
2021/04/21 08:24:14;;;;;;;7.60;4.40;;;;;;;;;;5034715;28;20454;-70
2021/04/21 08:26:43;;;;;;;10.20;5.57;;;;;;;;;;5035004;28;20461;-70
2021/04/21 08:29:12;;;;;;;9.37;6.03;;;;;;;;;;5034318;28;20489;-70
2021/04/21 08:31:39;;;;;;;7.57;5.30;;;;;;;;;;5033629;28;20520;-70
2021/04/21 08:34:08;;;;;;;8.40;4.67;;;;;;;;;;5034442;28;20520;-70
2021/04/21 08:36:37;;;;;;;7.40;4.80;;;;;;;;;;5034521;28;20465;-69
2021/04/21 08:39:08;;;;;;;11.43;5.03;;;;;;;;;;5034503;28;20458;-71
2021/04/21 08:41:38;;;;;;;7.50;4.40;;;;;;;;;;5034425;28;20450;-70
2021/04/21 08:44:10;;;;;;;8.30;5.30;;;;;;;;;;5034179;28;20459;-71
2021/04/21 08:46:38;;;;;;;9.53;4.67;;;;;;;;;;5035772;28;20808;-70
2021/04/21 08:49:06;;;;;;;7.20;3.90;;;;;;;;;;5036686;28;20520;-70
2021/04/21 08:51:36;;;;;;;10.80;4.00;;;;;;;;;;5035720;28;20454;-70
2021/04/21 08:54:04;;;;;;;7.50;4.63;;;;;;;;;;5035824;28;20431;-71
2021/04/21 08:56:59;;;;;;;8.43;5.60;;;;;;;;;;5035182;28;20520;-71
2021/04/21 08:59:28;;;;;;;7.57;4.97;;;;;;;;;;5034769;28;20561;-71
2021/04/21 09:01:56;;;;;;;6.73;5.20;;;;;;;;;;5034999;28;20443;-71
2021/04/21 09:04:23;;;;;;;7.83;5.30;;;;;;;;;;5034651;28;20872;-72
2021/04/21 09:06:54;;;;;;;6.00;3.63;;;;;;;;;;5034259;28;20450;-71
2021/04/21 09:09:27;;;;;;;14.57;6.10;;;;;;;;;;5034943;28;20501;-70
2021/04/21 09:11:56;;;;;;;8.67;5.53;;;;;;;;;;5032130;28;20909;-70
2021/04/21 09:14:24;;;;;;;8.60;5.50;;;;;;;;;;5034144;28;20447;-70
2021/04/21 09:16:54;;;;;;;16.43;7.00;;;;;;;;;;5045002;28;20461;-72
2021/04/21 09:19:21;;;;;;;9.70;5.80;;;;;;;;;;5035448;28;20882;-70
2021/04/21 09:21:48;;;;;;;10.80;7.53;;;;;;;;;;5035280;28;20793;-70
2021/04/21 09:24:27;;;;;;;9.03;6.13;;;;;;;;;;5037007;28;20550;-69
2021/04/21 09:26:54;;;;;;;10.10;6.17;;;;;;;;;;5036678;28;20451;-69
2021/04/21 09:29:25;;;;;;;10.00;6.27;;;;;;;;;;5036974;28;20511;-70
2021/04/21 09:32:07;;;;;;;7.93;6.77;;;;;;;;;;5026587;28;20483;-69
2021/04/21 09:34:34;;;;;;;9.03;6.47;;;;;;;;;;5038986;28;20462;-72
2021/04/21 09:37:02;;;;;;;8.17;5.67;;;;;;;;;;5037702;28;20843;-70
2021/04/21 09:39:29;;;;;;;12.63;8.10;;;;;;;;;;5038013;28;20451;-72
2021/04/21 09:42:00;;;;;;;9.90;7.43;;;;;;;;;;5036992;28;20454;-71
2021/04/21 09:44:30;;;;;;;15.33;8.03;;;;;;;;;;5037689;28;20880;-72
2021/04/21 09:46:59;;;;;;;12.83;9.60;;;;;;;;;;5035929;28;20981;-71
2021/04/21 09:49:43;;;;;;;13.70;9.70;;;;;;;;;;5037916;28;20491;-71
2021/04/21 09:52:29;;;;;;;16.23;10.63;;;;;;;;;;5037961;28;20881;-71
2021/04/21 09:54:58;;;;;;;14.53;9.37;;;;;;;;;;5035543;28;20467;-72
2021/04/21 09:57:31;;;;;;;20.17;12.53;;;;;;;;;;5022787;28;20463;-72
2021/04/21 09:59:59;;;;;;;16.93;9.23;;;;;;;;;;5018128;28;20444;-71
2021/04/21 10:02:30;;;;;;;16.73;11.63;;;;;;;;;;5017805;28;20519;-71
2021/04/21 10:05:00;;;;;;;18.40;13.00;;;;;;;;;;5017015;28;20496;-72
2021/04/21 10:07:27;;;;;;;15.67;11.17;;;;;;;;;;5017413;28;20468;-72
2021/04/21 10:09:58;;;;;;;15.70;12.20;;;;;;;;;;5018371;28;20498;-70
2021/04/21 10:12:26;;;;;;;13.53;9.83;;;;;;;;;;5024577;28;20483;-71
2021/04/21 10:15:08;;;;;;;14.23;11.60;;;;;;;;;;5037309;28;20491;-72
2021/04/21 10:17:39;;;;;;;14.23;10.30;;;;;;;;;;5038188;28;20794;-72
2021/04/21 10:20:11;;;;;;;16.37;10.23;;;;;;;;;;5036572;28;20455;-72
2021/04/21 10:22:39;;;;;;;14.90;11.77;;;;;;;;;;5037166;28;20470;-71
2021/04/21 10:25:07;;;;;;;18.40;11.43;;;;;;;;;;5038290;28;20906;-71
2021/04/21 10:27:37;;;;;;;10.80;7.17;;;;;;;;;;5037342;28;20725;-71
2021/04/21 10:30:06;;;;;;;15.60;11.47;;;;;;;;;;5036150;28;20511;-71
2021/04/21 10:32:36;;;;;;;13.20;9.97;;;;;;;;;;5035430;28;20504;-71
2021/04/21 10:35:04;;;;;;;11.93;7.97;;;;;;;;;;5035932;28;20549;-71
2021/04/21 10:37:36;;;;;;;14.20;10.43;;;;;;;;;;5036649;28;20466;-71
2021/04/21 10:40:24;;;;;;;14.70;10.80;;;;;;;;;;5035957;28;20461;-71
2021/04/21 10:42:58;;;;;;;20.20;12.83;;;;;;;;;;5031867;28;20520;-70
2021/04/21 10:45:26;;;;;;;15.70;11.70;;;;;;;;;;5027426;28;20501;-71
2021/04/21 10:47:55;;;;;;;18.67;12.00;;;;;;;;;;5031950;28;20522;-71
2021/04/21 10:50:40;;;;;;;21.53;13.93;;;;;;;;;;5017328;28;20459;-70
2021/04/21 10:53:25;;;;;;;21.83;11.10;;;;;;;;;;5027418;28;20523;-70
2021/04/21 10:55:53;;;;;;;18.57;11.60;;;;;;;;;;5036845;28;20451;-70
2021/04/21 10:58:23;;;;;;;19.80;13.00;;;;;;;;;;5037019;28;20501;-70
2021/04/21 11:00:51;;;;;;;15.40;9.90;;;;;;;;;;5035692;28;20521;-70
2021/04/21 11:03:20;;;;;;;17.80;11.00;;;;;;;;;;5036475;28;20574;-70
2021/04/21 11:05:52;;;;;;;11.70;8.20;;;;;;;;;;5035623;28;20459;-70
2021/04/21 11:08:23;;;;;;;16.37;11.10;;;;;;;;;;5037128;28;20961;-70
2021/04/21 11:10:59;;;;;;;15.10;9.80;;;;;;;;;;5035765;28;20512;-70
2021/04/21 11:13:41;;;;;;;17.33;10.80;;;;;;;;;;5035588;28;20541;-70
2021/04/21 11:16:29;;;;;;;19.07;12.83;;;;;;;;;;5033476;28;20549;-69
2021/04/21 11:19:17;;;;;;;21.93;13.60;;;;;;;;;;5035272;28;20470;-69
2021/04/21 11:21:46;;;;;;;18.23;12.23;;;;;;;;;;5034374;28;20470;-71
2021/04/21 11:24:15;;;;;;;20.53;11.20;;;;;;;;;;5035242;28;20463;-71
2021/04/21 11:26:49;;;;;;;17.57;11.63;;;;;;;;;;5035577;28;20462;-70
2021/04/21 11:29:30;;;;;;;14.53;11.13;;;;;;;;;;5048259;28;20513;-69
2021/04/21 11:32:13;;;;;;;23.30;14.83;;;;;;;;;;5015901;28;20522;-71
2021/04/21 11:34:43;;;;;;;17.43;12.40;;;;;;;;;;5019120;28;20789;-71
2021/04/21 11:37:15;;;;;;;23.57;13.80;;;;;;;;;;5032159;28;20455;-69
2021/04/21 11:39:50;;;;;;;17.43;9.30;;;;;;;;;;5035524;28;20725;-70
2021/04/21 11:42:21;;;;;;;16.37;11.00;;;;;;;;;;5030079;28;20457;-70
2021/04/21 11:44:57;;;;;;;12.10;9.13;;;;;;;;;;5015193;28;20562;-70
2021/04/21 11:47:34;;;;;;;13.40;9.40;;;;;;;;;;5032209;28;20788;-70
2021/04/21 11:50:06;;;;;;;8.80;7.00;;;;;;;;;;5026024;28;20870;-71
2021/04/21 11:52:52;;;;;;;14.70;7.90;;;;;;;;;;5034206;28;20454;-70
2021/04/21 11:55:21;;;;;;;11.00;7.43;;;;;;;;;;5023493;28;20451;-70
2021/04/21 11:57:54;;;;;;;9.63;6.73;;;;;;;;;;5034521;28;20973;-70
2021/04/21 12:00:22;;;;;;;16.63;8.30;;;;;;;;;;5034867;28;20451;-71
2021/04/21 12:02:53;;;;;;;11.43;8.43;;;;;;;;;;5034693;28;20774;-71
2021/04/21 12:05:28;;;;;;;9.53;7.03;;;;;;;;;;5034643;28;20482;-71
2021/04/21 12:07:59;;;;;;;9.83;6.40;;;;;;;;;;5034103;28;20446;-71
2021/04/21 12:10:32;;;;;;;9.00;6.30;;;;;;;;;;5033085;28;20533;-69
2021/04/21 12:13:18;;;;;;;15.23;7.07;;;;;;;;;;5033781;28;20451;-69
2021/04/21 12:15:48;;;;;;;9.77;6.37;;;;;;;;;;5033593;28;20705;-70
2021/04/21 12:18:40;;;;;;;13.87;6.50;;;;;;;;;;5033442;28;20737;-70
2021/04/21 12:21:21;;;;;;;10.17;6.80;;;;;;;;;;5015893;28;20467;-70
2021/04/21 12:23:49;;;;;;;7.80;6.03;;;;;;;;;;5035290;28;20459;-70
2021/04/21 12:26:18;;;;;;;8.23;5.10;;;;;;;;;;5036145;28;20485;-70
2021/04/21 12:28:47;;;;;;;9.53;2.47;;;;;;;;;;5033923;28;20479;-71
2021/04/21 12:31:20;;;;;;;9.50;5.30;;;;;;;;;;5034634;28;20462;-70
2021/04/21 12:33:51;;;;;;;8.97;4.50;;;;;;;;;;5033702;28;20446;-70
2021/04/21 12:36:18;;;;;;;8.57;4.33;;;;;;;;;;5034004;28;20532;-70
2021/04/21 12:39:00;;;;;;;5.30;2.87;;;;;;;;;;5034205;28;20543;-70
2021/04/21 12:41:27;;;;;;;6.37;3.37;;;;;;;;;;5034988;28;20532;-70
2021/04/21 12:43:54;;;;;;;4.93;3.37;;;;;;;;;;5034740;28;20564;-70
2021/04/21 12:46:39;;;;;;;9.63;3.77;;;;;;;;;;5032958;28;20463;-69
2021/04/21 12:49:07;;;;;;;7.40;3.37;;;;;;;;;;5031916;28;20502;-70
2021/04/21 12:51:34;;;;;;;6.27;3.10;;;;;;;;;;5032885;28;20983;-70
2021/04/21 12:54:02;;;;;;;6.50;2.57;;;;;;;;;;5034234;28;20443;-71
2021/04/21 12:56:37;;;;;;;5.33;2.07;;;;;;;;;;5034597;28;20465;-69
2021/04/21 12:59:14;;;;;;;4.30;2.60;;;;;;;;;;5036997;28;20454;-69
2021/04/21 13:01:42;;;;;;;5.73;1.80;;;;;;;;;;5038020;28;20451;-70
2021/04/21 13:04:16;;;;;;;7.07;1.33;;;;;;;;;;5037988;28;20859;-71
2021/04/21 13:06:46;;;;;;;4.63;1.23;;;;;;;;;;5037094;28;20465;-70
2021/04/21 13:09:19;;;;;;;5.47;1.67;;;;;;;;;;5038378;28;20926;-71
2021/04/21 13:11:47;;;;;;;5.60;1.80;;;;;;;;;;5038054;28;20454;-70
2021/04/21 13:14:18;;;;;;;5.50;1.33;;;;;;;;;;5035339;28;20443;-70
2021/04/21 13:16:52;;;;;;;11.07;2.40;;;;;;;;;;5018100;28;20868;-71
2021/04/21 13:19:24;;;;;;;3.97;1.63;;;;;;;;;;5019101;28;20455;-71
2021/04/21 13:22:05;;;;;;;4.87;2.07;;;;;;;;;;5015901;28;20460;-70
2021/04/21 13:27:47;;;;;;;5.90;1.80;;;;;;;;;;5017462;28;20723;-70
2021/04/21 13:30:16;;;;;;;4.37;1.40;;;;;;;;;;5017149;28;20860;-70
2021/04/21 13:32:45;;;;;;;4.73;1.80;;;;;;;;;;5017174;28;20846;-69
2021/04/21 13:35:15;;;;;;;10.80;2.30;;;;;;;;;;5018169;28;20459;-71
2021/04/21 13:37:44;;;;;;;5.13;1.40;;;;;;;;;;5017925;28;20443;-71
2021/04/21 13:40:12;;;;;;;5.80;2.00;;;;;;;;;;5016390;28;20502;-71
2021/04/21 13:42:40;;;;;;;4.27;1.17;;;;;;;;;;5018123;28;20775;-71
2021/04/21 13:45:12;;;;;;;10.37;1.57;;;;;;;;;;5017927;28;20470;-71
2021/04/21 13:47:40;;;;;;;3.13;0.97;;;;;;;;;;5027905;28;20695;-70
2021/04/21 13:50:10;;;;;;;5.40;1.13;;;;;;;;;;5037665;28;20814;-70
2021/04/21 13:52:44;;;;;;;9.90;2.50;;;;;;;;;;5035934;28;20454;-71
2021/04/21 13:55:22;;;;;;;6.87;1.43;;;;;;;;;;5019846;28;20508;-72
2021/04/21 13:57:56;;;;;;;8.57;1.57;;;;;;;;;;5019093;28;20463;-72
2021/04/21 14:00:26;;;;;;;4.00;1.73;;;;;;;;;;5018239;28;20458;-71
2021/04/21 14:02:54;;;;;;;2.47;1.47;;;;;;;;;;5016791;28;20542;-70
2021/04/21 14:05:23;;;;;;;7.70;1.90;;;;;;;;;;5017037;28;20452;-70
2021/04/21 14:07:52;;;;;;;6.10;1.57;;;;;;;;;;5024904;28;20463;-70
2021/04/21 14:10:21;;;;;;;3.10;1.23;;;;;;;;;;5036442;28;20447;-70
2021/04/21 14:12:52;;;;;;;6.13;3.23;;;;;;;;;;5036420;28;20724;-70
2021/04/21 14:15:20;;;;;;;5.50;1.43;;;;;;;;;;5036825;28;20754;-70
2021/04/21 14:17:50;;;;;;;2.57;1.43;;;;;;;;;;5036755;28;20470;-70
2021/04/21 14:20:23;;;;;;;10.13;1.20;;;;;;;;;;5025281;28;20513;-72
2021/04/21 14:22:54;;;;;;;9.23;1.47;;;;;;;;;;5037821;28;20463;-70
2021/04/21 14:25:35;;;;;;;17.50;3.73;;;;;;;;;;5037778;28;20481;-70
2021/04/21 14:28:02;;;;;;;3.13;1.37;;;;;;;;;;5038554;28;20501;-69
2021/04/21 14:30:31;;;;;;;7.70;2.00;;;;;;;;;;5037356;28;20427;-71
2021/04/21 14:33:01;;;;;;;7.27;1.57;;;;;;;;;;5037477;28;20458;-70
2021/04/21 14:35:29;;;;;;;5.30;1.80;;;;;;;;;;5036290;28;20451;-71
2021/04/21 14:37:58;;;;;;;3.70;1.53;;;;;;;;;;5034967;28;20599;-70
2021/04/21 14:40:25;;;;;;;9.33;2.20;;;;;;;;;;5016800;28;20840;-70
2021/04/21 14:42:53;;;;;;;10.70;1.90;;;;;;;;;;5017652;28;20605;-70
2021/04/21 14:45:21;;;;;;;3.40;1.40;;;;;;;;;;5017295;28;20781;-70
2021/04/21 14:47:48;;;;;;;12.97;2.93;;;;;;;;;;5031000;28;20553;-71
2021/04/21 14:50:16;;;;;;;3.77;1.87;;;;;;;;;;5036153;28;20478;-71
2021/04/21 14:52:44;;;;;;;9.20;1.97;;;;;;;;;;5035822;28;20493;-70
2021/04/21 14:55:13;;;;;;;3.10;1.20;;;;;;;;;;5035026;28;20462;-70
2021/04/21 14:57:42;;;;;;;2.90;1.53;;;;;;;;;;5017195;28;20460;-70
2021/04/21 15:00:16;;;;;;;5.30;1.80;;;;;;;;;;5018566;28;20444;-68
2021/04/21 15:02:44;;;;;;;11.27;3.20;;;;;;;;;;5035499;28;20458;-71
2021/04/21 15:05:13;;;;;;;4.33;1.93;;;;;;;;;;5035965;28;20487;-71
2021/04/21 15:07:41;;;;;;;5.53;1.47;;;;;;;;;;5035648;28;20462;-71
2021/04/21 15:10:09;;;;;;;4.40;1.40;;;;;;;;;;5036698;28;20518;-70
2021/04/21 15:12:41;;;;;;;6.03;1.90;;;;;;;;;;5032858;28;20485;-70